sensor_id;sensor_type;location;lat;lon;timestamp;P1;durP1;ratioP1;P2;durP2;ratioP2
67162;SDS011;54092;53.088;8.850;2023-07-13T00:01:11;9.13;;;4.85;;
67162;SDS011;54092;53.088;8.850;2023-07-13T00:03:37;9.63;;;4.72;;
67162;SDS011;54092;53.088;8.850;2023-07-13T00:06:05;8.40;;;4.97;;
67162;SDS011;54092;53.088;8.850;2023-07-13T00:08:31;8.75;;;5.43;;
67162;SDS011;54092;53.088;8.850;2023-07-13T00:10:58;14.50;;;4.93;;
67162;SDS011;54092;53.088;8.850;2023-07-13T00:13:23;9.93;;;4.97;;
67162;SDS011;54092;53.088;8.850;2023-07-13T00:15:49;9.05;;;4.63;;
67162;SDS011;54092;53.088;8.850;2023-07-13T00:18:14;7.80;;;4.82;;
67162;SDS011;54092;53.088;8.850;2023-07-13T00:20:40;9.15;;;4.40;;
67162;SDS011;54092;53.088;8.850;2023-07-13T00:23:06;9.52;;;5.00;;
67162;SDS011;54092;53.088;8.850;2023-07-13T00:25:32;8.82;;;4.57;;
67162;SDS011;54092;53.088;8.850;2023-07-13T00:27:58;8.93;;;4.80;;
67162;SDS011;54092;53.088;8.850;2023-07-13T00:30:23;12.45;;;5.05;;
67162;SDS011;54092;53.088;8.850;2023-07-13T00:32:49;10.38;;;5.25;;
67162;SDS011;54092;53.088;8.850;2023-07-13T00:35:14;11.10;;;5.40;;
67162;SDS011;54092;53.088;8.850;2023-07-13T00:37:40;9.13;;;5.45;;
67162;SDS011;54092;53.088;8.850;2023-07-13T00:40:06;8.07;;;4.97;;
67162;SDS011;54092;53.088;8.850;2023-07-13T00:42:33;9.52;;;5.18;;
67162;SDS011;54092;53.088;8.850;2023-07-13T00:47:36;7.78;;;5.32;;
67162;SDS011;54092;53.088;8.850;2023-07-13T00:50:03;10.52;;;5.10;;
67162;SDS011;54092;53.088;8.850;2023-07-13T00:52:30;10.45;;;5.68;;
67162;SDS011;54092;53.088;8.850;2023-07-13T00:54:56;9.15;;;5.50;;
67162;SDS011;54092;53.088;8.850;2023-07-13T00:57:22;7.80;;;5.50;;
67162;SDS011;54092;53.088;8.850;2023-07-13T00:59:55;9.88;;;5.85;;
67162;SDS011;54092;53.088;8.850;2023-07-13T01:02:24;10.38;;;5.88;;
67162;SDS011;54092;53.088;8.850;2023-07-13T01:04:50;10.50;;;5.80;;
67162;SDS011;54092;53.088;8.850;2023-07-13T01:07:16;11.45;;;6.03;;
67162;SDS011;54092;53.088;8.850;2023-07-13T01:09:44;10.05;;;5.80;;
67162;SDS011;54092;53.088;8.850;2023-07-13T01:12:10;10.27;;;6.30;;
67162;SDS011;54092;53.088;8.850;2023-07-13T01:14:35;11.30;;;6.00;;
67162;SDS011;54092;53.088;8.850;2023-07-13T01:17:01;13.25;;;6.55;;
67162;SDS011;54092;53.088;8.850;2023-07-13T01:19:38;11.27;;;6.22;;
67162;SDS011;54092;53.088;8.850;2023-07-13T01:22:09;8.32;;;5.90;;
67162;SDS011;54092;53.088;8.850;2023-07-13T01:24:36;13.95;;;6.20;;
67162;SDS011;54092;53.088;8.850;2023-07-13T01:27:03;8.18;;;6.07;;
67162;SDS011;54092;53.088;8.850;2023-07-13T01:29:31;11.68;;;5.65;;
67162;SDS011;54092;53.088;8.850;2023-07-13T01:31:57;11.50;;;6.05;;
67162;SDS011;54092;53.088;8.850;2023-07-13T01:34:25;10.32;;;5.85;;
67162;SDS011;54092;53.088;8.850;2023-07-13T01:36:51;11.40;;;5.60;;
67162;SDS011;54092;53.088;8.850;2023-07-13T01:39:18;11.15;;;5.45;;
67162;SDS011;54092;53.088;8.850;2023-07-13T01:41:45;9.88;;;6.40;;
67162;SDS011;54092;53.088;8.850;2023-07-13T01:44:11;15.30;;;6.28;;
67162;SDS011;54092;53.088;8.850;2023-07-13T01:46:36;12.73;;;6.38;;
67162;SDS011;54092;53.088;8.850;2023-07-13T01:49:02;10.30;;;6.78;;
67162;SDS011;54092;53.088;8.850;2023-07-13T01:51:27;9.30;;;6.00;;
67162;SDS011;54092;53.088;8.850;2023-07-13T01:53:53;11.32;;;6.20;;
67162;SDS011;54092;53.088;8.850;2023-07-13T01:56:18;12.57;;;6.68;;
67162;SDS011;54092;53.088;8.850;2023-07-13T01:58:44;13.73;;;7.60;;
67162;SDS011;54092;53.088;8.850;2023-07-13T02:01:10;13.20;;;7.15;;
67162;SDS011;54092;53.088;8.850;2023-07-13T02:03:36;11.48;;;7.05;;
67162;SDS011;54092;53.088;8.850;2023-07-13T02:06:01;10.60;;;6.97;;
67162;SDS011;54092;53.088;8.850;2023-07-13T02:08:27;13.27;;;6.82;;
67162;SDS011;54092;53.088;8.850;2023-07-13T02:10:53;12.10;;;6.80;;
67162;SDS011;54092;53.088;8.850;2023-07-13T02:13:19;11.70;;;6.50;;
67162;SDS011;54092;53.088;8.850;2023-07-13T02:15:44;10.32;;;6.63;;
67162;SDS011;54092;53.088;8.850;2023-07-13T02:18:10;14.48;;;6.57;;
67162;SDS011;54092;53.088;8.850;2023-07-13T02:20:35;13.68;;;6.88;;
67162;SDS011;54092;53.088;8.850;2023-07-13T02:23:01;12.48;;;6.45;;
67162;SDS011;54092;53.088;8.850;2023-07-13T02:25:26;11.73;;;6.20;;
67162;SDS011;54092;53.088;8.850;2023-07-13T02:27:52;13.13;;;5.72;;
67162;SDS011;54092;53.088;8.850;2023-07-13T02:30:18;15.05;;;6.78;;
67162;SDS011;54092;53.088;8.850;2023-07-13T02:32:43;15.63;;;5.90;;
67162;SDS011;54092;53.088;8.850;2023-07-13T02:35:09;12.15;;;6.78;;
67162;SDS011;54092;53.088;8.850;2023-07-13T02:37:35;13.43;;;6.90;;
67162;SDS011;54092;53.088;8.850;2023-07-13T02:40:00;11.45;;;6.53;;
67162;SDS011;54092;53.088;8.850;2023-07-13T02:42:28;12.40;;;7.03;;
67162;SDS011;54092;53.088;8.850;2023-07-13T02:44:53;12.32;;;6.50;;
67162;SDS011;54092;53.088;8.850;2023-07-13T02:47:19;10.93;;;6.30;;
67162;SDS011;54092;53.088;8.850;2023-07-13T02:49:44;13.35;;;6.22;;
67162;SDS011;54092;53.088;8.850;2023-07-13T02:52:10;9.52;;;6.30;;
67162;SDS011;54092;53.088;8.850;2023-07-13T02:54:35;9.68;;;5.63;;
67162;SDS011;54092;53.088;8.850;2023-07-13T02:57:01;9.57;;;5.82;;
67162;SDS011;54092;53.088;8.850;2023-07-13T02:59:26;10.38;;;6.10;;
67162;SDS011;54092;53.088;8.850;2023-07-13T03:01:52;11.90;;;6.20;;
67162;SDS011;54092;53.088;8.850;2023-07-13T03:04:17;11.60;;;5.70;;
67162;SDS011;54092;53.088;8.850;2023-07-13T03:06:44;9.48;;;5.97;;
67162;SDS011;54092;53.088;8.850;2023-07-13T03:09:10;11.63;;;5.80;;
67162;SDS011;54092;53.088;8.850;2023-07-13T03:11:37;11.45;;;6.25;;
67162;SDS011;54092;53.088;8.850;2023-07-13T03:14:03;9.90;;;5.32;;
67162;SDS011;54092;53.088;8.850;2023-07-13T03:16:28;13.82;;;5.88;;
67162;SDS011;54092;53.088;8.850;2023-07-13T03:18:54;13.77;;;5.47;;
67162;SDS011;54092;53.088;8.850;2023-07-13T03:21:20;17.25;;;6.00;;
67162;SDS011;54092;53.088;8.850;2023-07-13T03:23:46;12.48;;;6.05;;
67162;SDS011;54092;53.088;8.850;2023-07-13T03:26:13;14.02;;;5.40;;
67162;SDS011;54092;53.088;8.850;2023-07-13T03:28:43;11.63;;;4.97;;
67162;SDS011;54092;53.088;8.850;2023-07-13T03:31:10;10.80;;;4.72;;
67162;SDS011;54092;53.088;8.850;2023-07-13T03:33:42;13.00;;;4.95;;
67162;SDS011;54092;53.088;8.850;2023-07-13T03:36:11;10.32;;;4.57;;
67162;SDS011;54092;53.088;8.850;2023-07-13T03:38:39;8.93;;;5.20;;
67162;SDS011;54092;53.088;8.850;2023-07-13T03:41:05;9.63;;;4.32;;
67162;SDS011;54092;53.088;8.850;2023-07-13T03:43:30;14.23;;;4.97;;
67162;SDS011;54092;53.088;8.850;2023-07-13T03:45:56;8.55;;;4.45;;
67162;SDS011;54092;53.088;8.850;2023-07-13T03:48:21;13.05;;;4.72;;
67162;SDS011;54092;53.088;8.850;2023-07-13T03:50:47;10.55;;;4.45;;
67162;SDS011;54092;53.088;8.850;2023-07-13T03:53:14;8.93;;;4.18;;
67162;SDS011;54092;53.088;8.850;2023-07-13T03:55:39;9.25;;;3.85;;
67162;SDS011;54092;53.088;8.850;2023-07-13T04:01:00;8.00;;;3.35;;
67162;SDS011;54092;53.088;8.850;2023-07-13T04:03:28;6.63;;;3.50;;
67162;SDS011;54092;53.088;8.850;2023-07-13T04:05:55;11.00;;;3.88;;
67162;SDS011;54092;53.088;8.850;2023-07-13T04:08:24;11.80;;;3.65;;
67162;SDS011;54092;53.088;8.850;2023-07-13T04:10:57;9.10;;;3.47;;
67162;SDS011;54092;53.088;8.850;2023-07-13T04:13:23;12.57;;;4.07;;
67162;SDS011;54092;53.088;8.850;2023-07-13T04:15:49;6.80;;;3.38;;
67162;SDS011;54092;53.088;8.850;2023-07-13T04:18:15;11.52;;;3.53;;
67162;SDS011;54092;53.088;8.850;2023-07-13T04:20:40;10.82;;;4.00;;
67162;SDS011;54092;53.088;8.850;2023-07-13T04:23:06;15.32;;;3.92;;
67162;SDS011;54092;53.088;8.850;2023-07-13T04:25:31;8.15;;;3.22;;
67162;SDS011;54092;53.088;8.850;2023-07-13T04:27:58;9.73;;;3.30;;
67162;SDS011;54092;53.088;8.850;2023-07-13T04:30:23;7.88;;;3.40;;
67162;SDS011;54092;53.088;8.850;2023-07-13T04:32:50;10.13;;;3.10;;
67162;SDS011;54092;53.088;8.850;2023-07-13T04:35:17;10.10;;;3.30;;
67162;SDS011;54092;53.088;8.850;2023-07-13T04:37:46;9.07;;;3.40;;
67162;SDS011;54092;53.088;8.850;2023-07-13T04:42:41;15.43;;;3.53;;
67162;SDS011;54092;53.088;8.850;2023-07-13T04:45:07;8.45;;;3.10;;
67162;SDS011;54092;53.088;8.850;2023-07-13T04:47:32;6.45;;;3.13;;
67162;SDS011;54092;53.088;8.850;2023-07-13T04:49:58;12.18;;;3.53;;
67162;SDS011;54092;53.088;8.850;2023-07-13T04:52:24;11.15;;;3.35;;
67162;SDS011;54092;53.088;8.850;2023-07-13T04:54:49;11.50;;;3.58;;
67162;SDS011;54092;53.088;8.850;2023-07-13T04:57:15;7.05;;;3.00;;
67162;SDS011;54092;53.088;8.850;2023-07-13T04:59:41;9.80;;;3.22;;
67162;SDS011;54092;53.088;8.850;2023-07-13T05:02:06;8.35;;;3.40;;
67162;SDS011;54092;53.088;8.850;2023-07-13T05:04:32;11.93;;;3.50;;
67162;SDS011;54092;53.088;8.850;2023-07-13T05:06:58;16.33;;;3.50;;
67162;SDS011;54092;53.088;8.850;2023-07-13T05:09:24;8.38;;;2.88;;
67162;SDS011;54092;53.088;8.850;2023-07-13T05:11:50;8.10;;;3.22;;
67162;SDS011;54092;53.088;8.850;2023-07-13T05:14:15;12.30;;;3.47;;
67162;SDS011;54092;53.088;8.850;2023-07-13T05:16:41;9.65;;;3.45;;
67162;SDS011;54092;53.088;8.850;2023-07-13T05:19:07;7.80;;;3.42;;
67162;SDS011;54092;53.088;8.850;2023-07-13T05:21:33;9.63;;;3.50;;
67162;SDS011;54092;53.088;8.850;2023-07-13T05:23:59;9.25;;;3.50;;
67162;SDS011;54092;53.088;8.850;2023-07-13T05:26:24;11.88;;;3.40;;
67162;SDS011;54092;53.088;8.850;2023-07-13T05:28:50;12.77;;;3.83;;
67162;SDS011;54092;53.088;8.850;2023-07-13T05:31:15;13.02;;;3.58;;
67162;SDS011;54092;53.088;8.850;2023-07-13T05:33:41;10.23;;;3.42;;
67162;SDS011;54092;53.088;8.850;2023-07-13T05:36:06;9.88;;;3.40;;
67162;SDS011;54092;53.088;8.850;2023-07-13T05:38:32;10.90;;;4.10;;
67162;SDS011;54092;53.088;8.850;2023-07-13T05:40:58;7.13;;;3.00;;
67162;SDS011;54092;53.088;8.850;2023-07-13T05:43:24;13.07;;;3.83;;
67162;SDS011;54092;53.088;8.850;2023-07-13T05:45:52;9.50;;;3.42;;
67162;SDS011;54092;53.088;8.850;2023-07-13T05:48:19;10.45;;;3.65;;
67162;SDS011;54092;53.088;8.850;2023-07-13T05:50:44;9.10;;;3.90;;
67162;SDS011;54092;53.088;8.850;2023-07-13T05:53:10;12.07;;;3.97;;
67162;SDS011;54092;53.088;8.850;2023-07-13T05:55:40;10.40;;;3.80;;
67162;SDS011;54092;53.088;8.850;2023-07-13T05:58:06;11.30;;;3.90;;
67162;SDS011;54092;53.088;8.850;2023-07-13T06:00:32;16.05;;;4.68;;
67162;SDS011;54092;53.088;8.850;2023-07-13T06:02:58;13.23;;;4.00;;
67162;SDS011;54092;53.088;8.850;2023-07-13T06:05:24;10.98;;;3.40;;
67162;SDS011;54092;53.088;8.850;2023-07-13T06:07:49;14.20;;;4.72;;
67162;SDS011;54092;53.088;8.850;2023-07-13T06:10:15;13.63;;;3.95;;
67162;SDS011;54092;53.088;8.850;2023-07-13T06:12:40;10.65;;;3.90;;
67162;SDS011;54092;53.088;8.850;2023-07-13T06:15:06;9.25;;;3.28;;
67162;SDS011;54092;53.088;8.850;2023-07-13T06:17:32;11.02;;;3.38;;
67162;SDS011;54092;53.088;8.850;2023-07-13T06:19:57;10.77;;;3.70;;
67162;SDS011;54092;53.088;8.850;2023-07-13T06:22:23;15.88;;;4.03;;
67162;SDS011;54092;53.088;8.850;2023-07-13T06:24:48;13.23;;;4.03;;
67162;SDS011;54092;53.088;8.850;2023-07-13T06:27:14;9.32;;;3.60;;
67162;SDS011;54092;53.088;8.850;2023-07-13T06:29:39;8.68;;;3.67;;
67162;SDS011;54092;53.088;8.850;2023-07-13T06:32:05;15.05;;;4.28;;
67162;SDS011;54092;53.088;8.850;2023-07-13T06:34:31;14.75;;;3.97;;
67162;SDS011;54092;53.088;8.850;2023-07-13T06:36:57;12.18;;;3.75;;
67162;SDS011;54092;53.088;8.850;2023-07-13T06:39:22;17.45;;;5.60;;
67162;SDS011;54092;53.088;8.850;2023-07-13T06:41:48;10.50;;;3.75;;
67162;SDS011;54092;53.088;8.850;2023-07-13T06:44:13;17.02;;;4.22;;
67162;SDS011;54092;53.088;8.850;2023-07-13T06:46:39;11.35;;;3.97;;
67162;SDS011;54092;53.088;8.850;2023-07-13T06:49:04;12.73;;;4.05;;
67162;SDS011;54092;53.088;8.850;2023-07-13T06:51:30;11.77;;;3.20;;
67162;SDS011;54092;53.088;8.850;2023-07-13T06:53:55;10.85;;;3.75;;
67162;SDS011;54092;53.088;8.850;2023-07-13T06:56:21;6.60;;;3.25;;
67162;SDS011;54092;53.088;8.850;2023-07-13T06:58:46;7.85;;;3.60;;
67162;SDS011;54092;53.088;8.850;2023-07-13T07:01:12;11.55;;;3.92;;
67162;SDS011;54092;53.088;8.850;2023-07-13T07:03:37;14.65;;;3.92;;
67162;SDS011;54092;53.088;8.850;2023-07-13T07:06:13;10.25;;;3.65;;
67162;SDS011;54092;53.088;8.850;2023-07-13T07:08:43;13.95;;;4.05;;
67162;SDS011;54092;53.088;8.850;2023-07-13T07:11:12;10.55;;;3.55;;
67162;SDS011;54092;53.088;8.850;2023-07-13T07:13:42;14.77;;;3.88;;
67162;SDS011;54092;53.088;8.850;2023-07-13T07:16:08;10.93;;;3.80;;
67162;SDS011;54092;53.088;8.850;2023-07-13T07:18:34;14.77;;;4.18;;
67162;SDS011;54092;53.088;8.850;2023-07-13T07:20:59;10.65;;;3.30;;
67162;SDS011;54092;53.088;8.850;2023-07-13T07:23:25;11.40;;;3.65;;
67162;SDS011;54092;53.088;8.850;2023-07-13T07:25:50;8.18;;;3.30;;
67162;SDS011;54092;53.088;8.850;2023-07-13T07:28:16;9.38;;;3.28;;
67162;SDS011;54092;53.088;8.850;2023-07-13T07:30:43;12.85;;;4.25;;
67162;SDS011;54092;53.088;8.850;2023-07-13T07:33:09;10.10;;;3.40;;
67162;SDS011;54092;53.088;8.850;2023-07-13T07:35:35;12.73;;;3.42;;
67162;SDS011;54092;53.088;8.850;2023-07-13T07:38:00;10.38;;;3.88;;
67162;SDS011;54092;53.088;8.850;2023-07-13T07:40:26;9.13;;;4.05;;
67162;SDS011;54092;53.088;8.850;2023-07-13T07:42:51;13.40;;;3.80;;
67162;SDS011;54092;53.088;8.850;2023-07-13T07:45:18;10.15;;;3.88;;
67162;SDS011;54092;53.088;8.850;2023-07-13T07:47:44;10.93;;;3.78;;
67162;SDS011;54092;53.088;8.850;2023-07-13T07:50:09;13.32;;;3.95;;
67162;SDS011;54092;53.088;8.850;2023-07-13T07:52:35;12.80;;;4.40;;
67162;SDS011;54092;53.088;8.850;2023-07-13T07:55:01;7.95;;;3.78;;
67162;SDS011;54092;53.088;8.850;2023-07-13T07:57:29;9.32;;;3.45;;
67162;SDS011;54092;53.088;8.850;2023-07-13T07:59:54;15.07;;;4.78;;
67162;SDS011;54092;53.088;8.850;2023-07-13T08:02:20;7.82;;;3.83;;
67162;SDS011;54092;53.088;8.850;2023-07-13T08:04:45;8.68;;;3.85;;
67162;SDS011;54092;53.088;8.850;2023-07-13T08:07:11;12.18;;;3.97;;
67162;SDS011;54092;53.088;8.850;2023-07-13T08:09:36;9.80;;;4.65;;
67162;SDS011;54092;53.088;8.850;2023-07-13T08:12:02;12.23;;;3.58;;
67162;SDS011;54092;53.088;8.850;2023-07-13T08:14:28;11.65;;;4.38;;
67162;SDS011;54092;53.088;8.850;2023-07-13T08:16:54;8.05;;;3.80;;
67162;SDS011;54092;53.088;8.850;2023-07-13T08:19:19;8.02;;;3.58;;
67162;SDS011;54092;53.088;8.850;2023-07-13T08:21:45;11.57;;;4.22;;
67162;SDS011;54092;53.088;8.850;2023-07-13T08:24:13;8.43;;;3.90;;
67162;SDS011;54092;53.088;8.850;2023-07-13T08:26:38;8.82;;;3.95;;
67162;SDS011;54092;53.088;8.850;2023-07-13T08:29:04;8.75;;;4.45;;
67162;SDS011;54092;53.088;8.850;2023-07-13T08:31:29;8.63;;;3.90;;
67162;SDS011;54092;53.088;8.850;2023-07-13T08:33:55;10.85;;;4.40;;
67162;SDS011;54092;53.088;8.850;2023-07-13T08:36:20;11.57;;;4.28;;
67162;SDS011;54092;53.088;8.850;2023-07-13T08:38:46;9.85;;;4.13;;
67162;SDS011;54092;53.088;8.850;2023-07-13T08:41:12;13.70;;;4.15;;
67162;SDS011;54092;53.088;8.850;2023-07-13T08:43:40;12.57;;;4.10;;
67162;SDS011;54092;53.088;8.850;2023-07-13T08:46:21;7.05;;;3.78;;
67162;SDS011;54092;53.088;8.850;2023-07-13T08:48:52;10.38;;;4.05;;
67162;SDS011;54092;53.088;8.850;2023-07-13T08:51:26;6.97;;;3.78;;
67162;SDS011;54092;53.088;8.850;2023-07-13T08:56:52;10.88;;;4.57;;
67162;SDS011;54092;53.088;8.850;2023-07-13T08:59:20;6.32;;;3.50;;
67162;SDS011;54092;53.088;8.850;2023-07-13T09:10:27;8.15;;;3.70;;
67162;SDS011;54092;53.088;8.850;2023-07-13T09:12:57;9.07;;;3.60;;
67162;SDS011;54092;53.088;8.850;2023-07-13T09:15:31;6.93;;;3.58;;
67162;SDS011;54092;53.088;8.850;2023-07-13T09:18:02;8.55;;;3.83;;
67162;SDS011;54092;53.088;8.850;2023-07-13T09:20:37;7.55;;;3.20;;
67162;SDS011;54092;53.088;8.850;2023-07-13T09:23:10;8.25;;;3.35;;
67162;SDS011;54092;53.088;8.850;2023-07-13T09:25:40;11.70;;;3.45;;
67162;SDS011;54092;53.088;8.850;2023-07-13T09:28:10;6.30;;;3.30;;
67162;SDS011;54092;53.088;8.850;2023-07-13T09:30:46;7.55;;;3.38;;
67162;SDS011;54092;53.088;8.850;2023-07-13T09:33:37;9.40;;;3.78;;
67162;SDS011;54092;53.088;8.850;2023-07-13T09:36:15;7.53;;;3.30;;
67162;SDS011;54092;53.088;8.850;2023-07-13T09:38:57;9.30;;;3.58;;
67162;SDS011;54092;53.088;8.850;2023-07-13T09:41:27;8.30;;;3.70;;
67162;SDS011;54092;53.088;8.850;2023-07-13T09:44:08;5.55;;;3.03;;
67162;SDS011;54092;53.088;8.850;2023-07-13T09:46:37;7.13;;;3.00;;
67162;SDS011;54092;53.088;8.850;2023-07-13T09:49:04;7.93;;;3.40;;
67162;SDS011;54092;53.088;8.850;2023-07-13T09:51:30;6.03;;;2.90;;
67162;SDS011;54092;53.088;8.850;2023-07-13T09:53:55;7.00;;;3.28;;
67162;SDS011;54092;53.088;8.850;2023-07-13T09:56:23;6.40;;;3.30;;
67162;SDS011;54092;53.088;8.850;2023-07-13T09:58:51;7.13;;;4.57;;
67162;SDS011;54092;53.088;8.850;2023-07-13T10:01:30;6.70;;;2.95;;
67162;SDS011;54092;53.088;8.850;2023-07-13T10:04:00;7.38;;;2.90;;
67162;SDS011;54092;53.088;8.850;2023-07-13T10:06:26;7.63;;;3.20;;
67162;SDS011;54092;53.088;8.850;2023-07-13T10:08:52;6.45;;;3.00;;
67162;SDS011;54092;53.088;8.850;2023-07-13T10:11:21;4.60;;;2.88;;
67162;SDS011;54092;53.088;8.850;2023-07-13T10:13:56;6.38;;;3.03;;
67162;SDS011;54092;53.088;8.850;2023-07-13T10:16:25;8.55;;;2.85;;
67162;SDS011;54092;53.088;8.850;2023-07-13T10:18:56;4.95;;;2.67;;
67162;SDS011;54092;53.088;8.850;2023-07-13T10:21:26;6.68;;;3.08;;
67162;SDS011;54092;53.088;8.850;2023-07-13T10:24:02;12.13;;;3.50;;
67162;SDS011;54092;53.088;8.850;2023-07-13T10:26:34;8.02;;;3.15;;
67162;SDS011;54092;53.088;8.850;2023-07-13T10:29:11;7.43;;;2.92;;
67162;SDS011;54092;53.088;8.850;2023-07-13T10:31:40;5.88;;;3.05;;
67162;SDS011;54092;53.088;8.850;2023-07-13T10:34:09;6.30;;;3.20;;
67162;SDS011;54092;53.088;8.850;2023-07-13T10:36:40;6.93;;;3.30;;
67162;SDS011;54092;53.088;8.850;2023-07-13T10:39:19;7.20;;;2.95;;
67162;SDS011;54092;53.088;8.850;2023-07-13T10:41:49;8.73;;;3.35;;
67162;SDS011;54092;53.088;8.850;2023-07-13T10:44:25;8.15;;;3.20;;
67162;SDS011;54092;53.088;8.850;2023-07-13T10:47:04;5.38;;;2.97;;
67162;SDS011;54092;53.088;8.850;2023-07-13T10:49:33;8.05;;;3.30;;
67162;SDS011;54092;53.088;8.850;2023-07-13T10:52:00;5.15;;;2.55;;
67162;SDS011;54092;53.088;8.850;2023-07-13T10:54:28;6.13;;;2.70;;
67162;SDS011;54092;53.088;8.850;2023-07-13T10:57:39;7.93;;;3.47;;
67162;SDS011;54092;53.088;8.850;2023-07-13T10:59:46;6.47;;;3.00;;
67162;SDS011;54092;53.088;8.850;2023-07-13T11:02:16;9.25;;;3.00;;
67162;SDS011;54092;53.088;8.850;2023-07-13T11:04:49;5.40;;;2.80;;
67162;SDS011;54092;53.088;8.850;2023-07-13T11:09:48;5.40;;;2.42;;
67162;SDS011;54092;53.088;8.850;2023-07-13T11:22:43;6.65;;;3.28;;
67162;SDS011;54092;53.088;8.850;2023-07-13T11:28:07;5.43;;;2.67;;
67162;SDS011;54092;53.088;8.850;2023-07-13T11:30:48;5.63;;;2.90;;
67162;SDS011;54092;53.088;8.850;2023-07-13T11:33:28;5.60;;;3.42;;
67162;SDS011;54092;53.088;8.850;2023-07-13T11:36:12;6.97;;;3.22;;
67162;SDS011;54092;53.088;8.850;2023-07-13T11:38:40;8.05;;;3.08;;
67162;SDS011;54092;53.088;8.850;2023-07-13T11:43:50;6.15;;;2.78;;
67162;SDS011;54092;53.088;8.850;2023-07-13T11:46:23;5.75;;;3.08;;
67162;SDS011;54092;53.088;8.850;2023-07-13T11:48:51;7.55;;;2.88;;
67162;SDS011;54092;53.088;8.850;2023-07-13T11:51:27;4.63;;;2.33;;
67162;SDS011;54092;53.088;8.850;2023-07-13T11:53:59;4.70;;;2.42;;
67162;SDS011;54092;53.088;8.850;2023-07-13T11:56:29;4.97;;;2.20;;
67162;SDS011;54092;53.088;8.850;2023-07-13T11:58:57;4.00;;;1.90;;
67162;SDS011;54092;53.088;8.850;2023-07-13T12:01:29;3.92;;;2.00;;
67162;SDS011;54092;53.088;8.850;2023-07-13T12:03:58;5.03;;;1.80;;
67162;SDS011;54092;53.088;8.850;2023-07-13T12:06:29;3.03;;;2.03;;
67162;SDS011;54092;53.088;8.850;2023-07-13T12:08:57;4.05;;;2.00;;
67162;SDS011;54092;53.088;8.850;2023-07-13T12:11:28;4.47;;;2.20;;
67162;SDS011;54092;53.088;8.850;2023-07-13T12:13:55;3.45;;;1.83;;
67162;SDS011;54092;53.088;8.850;2023-07-13T12:16:23;5.07;;;2.50;;
67162;SDS011;54092;53.088;8.850;2023-07-13T12:18:51;5.47;;;2.30;;
67162;SDS011;54092;53.088;8.850;2023-07-13T12:21:18;5.20;;;2.30;;
67162;SDS011;54092;53.088;8.850;2023-07-13T12:23:47;5.05;;;2.45;;
67162;SDS011;54092;53.088;8.850;2023-07-13T12:26:14;7.65;;;2.80;;
67162;SDS011;54092;53.088;8.850;2023-07-13T12:31:24;4.75;;;2.50;;
67162;SDS011;54092;53.088;8.850;2023-07-13T12:33:59;5.88;;;2.40;;
67162;SDS011;54092;53.088;8.850;2023-07-13T12:36:29;7.13;;;2.53;;
67162;SDS011;54092;53.088;8.850;2023-07-13T12:38:57;5.25;;;2.22;;
67162;SDS011;54092;53.088;8.850;2023-07-13T12:41:29;4.63;;;2.05;;
67162;SDS011;54092;53.088;8.850;2023-07-13T12:43:55;4.18;;;2.20;;
67162;SDS011;54092;53.088;8.850;2023-07-13T12:46:21;4.65;;;2.40;;
67162;SDS011;54092;53.088;8.850;2023-07-13T12:48:53;4.53;;;2.10;;
67162;SDS011;54092;53.088;8.850;2023-07-13T12:51:22;4.18;;;2.00;;
67162;SDS011;54092;53.088;8.850;2023-07-13T12:53:56;3.22;;;2.00;;
67162;SDS011;54092;53.088;8.850;2023-07-13T12:56:30;6.28;;;1.95;;
67162;SDS011;54092;53.088;8.850;2023-07-13T12:59:00;3.58;;;2.05;;
67162;SDS011;54092;53.088;8.850;2023-07-13T13:01:27;5.13;;;2.70;;
67162;SDS011;54092;53.088;8.850;2023-07-13T13:03:54;5.15;;;2.08;;
67162;SDS011;54092;53.088;8.850;2023-07-13T13:06:22;3.35;;;1.80;;
67162;SDS011;54092;53.088;8.850;2023-07-13T13:08:54;3.90;;;2.00;;
67162;SDS011;54092;53.088;8.850;2023-07-13T13:11:23;3.97;;;2.00;;
67162;SDS011;54092;53.088;8.850;2023-07-13T13:13:50;3.72;;;1.90;;
67162;SDS011;54092;53.088;8.850;2023-07-13T13:18:51;3.22;;;1.70;;
67162;SDS011;54092;53.088;8.850;2023-07-13T13:21:19;3.33;;;1.80;;
67162;SDS011;54092;53.088;8.850;2023-07-13T13:23:45;3.28;;;1.80;;
67162;SDS011;54092;53.088;8.850;2023-07-13T13:26:12;2.45;;;1.52;;
67162;SDS011;54092;53.088;8.850;2023-07-13T13:28:41;3.72;;;1.73;;
67162;SDS011;54092;53.088;8.850;2023-07-13T13:31:07;2.45;;;1.50;;
67162;SDS011;54092;53.088;8.850;2023-07-13T13:33:37;3.65;;;1.85;;
67162;SDS011;54092;53.088;8.850;2023-07-13T13:36:08;3.45;;;2.00;;
67162;SDS011;54092;53.088;8.850;2023-07-13T13:38:44;3.65;;;1.95;;
67162;SDS011;54092;53.088;8.850;2023-07-13T13:41:11;4.15;;;1.80;;
67162;SDS011;54092;53.088;8.850;2023-07-13T13:43:38;2.70;;;1.63;;
67162;SDS011;54092;53.088;8.850;2023-07-13T13:46:05;3.45;;;1.67;;
67162;SDS011;54092;53.088;8.850;2023-07-13T13:48:46;4.70;;;2.05;;
67162;SDS011;54092;53.088;8.850;2023-07-13T13:51:13;3.63;;;1.70;;
67162;SDS011;54092;53.088;8.850;2023-07-13T13:53:44;3.33;;;1.90;;
67162;SDS011;54092;53.088;8.850;2023-07-13T13:56:11;3.85;;;2.00;;
67162;SDS011;54092;53.088;8.850;2023-07-13T13:58:37;4.97;;;2.00;;
67162;SDS011;54092;53.088;8.850;2023-07-13T14:01:03;3.38;;;2.10;;
67162;SDS011;54092;53.088;8.850;2023-07-13T14:03:33;4.10;;;2.08;;
67162;SDS011;54092;53.088;8.850;2023-07-13T14:05:58;4.15;;;2.30;;
67162;SDS011;54092;53.088;8.850;2023-07-13T14:08:24;2.97;;;1.83;;
67162;SDS011;54092;53.088;8.850;2023-07-13T14:10:51;3.85;;;1.92;;
67162;SDS011;54092;53.088;8.850;2023-07-13T14:13:19;4.53;;;2.13;;
67162;SDS011;54092;53.088;8.850;2023-07-13T14:15:51;2.83;;;2.00;;
67162;SDS011;54092;53.088;8.850;2023-07-13T14:18:17;5.70;;;2.35;;
67162;SDS011;54092;53.088;8.850;2023-07-13T14:20:43;6.15;;;2.30;;
67162;SDS011;54092;53.088;8.850;2023-07-13T14:23:09;3.25;;;1.90;;
67162;SDS011;54092;53.088;8.850;2023-07-13T14:25:34;3.92;;;2.00;;
67162;SDS011;54092;53.088;8.850;2023-07-13T14:28:04;6.07;;;3.08;;
67162;SDS011;54092;53.088;8.850;2023-07-13T14:30:47;4.15;;;2.22;;
67162;SDS011;54092;53.088;8.850;2023-07-13T14:33:13;4.32;;;2.30;;
67162;SDS011;54092;53.088;8.850;2023-07-13T14:35:38;8.40;;;4.45;;
67162;SDS011;54092;53.088;8.850;2023-07-13T14:38:04;6.35;;;2.42;;
67162;SDS011;54092;53.088;8.850;2023-07-13T14:42:59;5.95;;;2.35;;
67162;SDS011;54092;53.088;8.850;2023-07-13T14:45:25;5.22;;;2.50;;
67162;SDS011;54092;53.088;8.850;2023-07-13T14:47:51;5.57;;;2.10;;
67162;SDS011;54092;53.088;8.850;2023-07-13T14:50:17;4.90;;;2.65;;
67162;SDS011;54092;53.088;8.850;2023-07-13T14:52:49;4.47;;;2.30;;
67162;SDS011;54092;53.088;8.850;2023-07-13T14:55:16;4.88;;;2.33;;
67162;SDS011;54092;53.088;8.850;2023-07-13T14:57:43;5.35;;;2.63;;
67162;SDS011;54092;53.088;8.850;2023-07-13T15:00:15;4.78;;;2.50;;
67162;SDS011;54092;53.088;8.850;2023-07-13T15:02:43;5.78;;;2.67;;
67162;SDS011;54092;53.088;8.850;2023-07-13T15:05:16;4.85;;;2.40;;
67162;SDS011;54092;53.088;8.850;2023-07-13T15:07:44;6.82;;;2.65;;
67162;SDS011;54092;53.088;8.850;2023-07-13T15:10:16;4.30;;;2.20;;
67162;SDS011;54092;53.088;8.850;2023-07-13T15:12:43;4.22;;;1.90;;
67162;SDS011;54092;53.088;8.850;2023-07-13T15:15:09;3.22;;;1.98;;
67162;SDS011;54092;53.088;8.850;2023-07-13T15:17:39;5.70;;;2.20;;
67162;SDS011;54092;53.088;8.850;2023-07-13T15:20:17;6.05;;;2.40;;
67162;SDS011;54092;53.088;8.850;2023-07-13T15:22:48;5.10;;;2.13;;
67162;SDS011;54092;53.088;8.850;2023-07-13T15:25:16;4.20;;;2.08;;
67162;SDS011;54092;53.088;8.850;2023-07-13T15:27:43;6.63;;;2.22;;
67162;SDS011;54092;53.088;8.850;2023-07-13T15:30:09;7.55;;;2.10;;
67162;SDS011;54092;53.088;8.850;2023-07-13T15:32:35;4.68;;;2.10;;